Upper Key Largo, Florida
Current Conditions -  °F | °C
As of 9:43 PM on Thursday 20 Nov 2014 (Local Time) from KHST Reporting Station
Scattered Clouds Scattered Clouds  
Wind Chill: 73°   Ceiling: Unl
Heat Index: 73°   Visibility: 10mi
Dew Point: 64°   Wind: 18mph
Humidity: 73%   Direction: 40°NE
Pressure: 30.12"   Gusts: NA
Location:  25.2553°N, 80.3918°W
Report Text: KHST 210243Z AUTO 04016KT 10SM SCT028 23/18 A3012 RMK AO2 $
Loading
Personal Weather Stations






























Interactive Weather Map New forecast layout! Learn more

10-Day Weather Forecast

Advertisements
Track Severe Weather on mobile